sensor_id;sensor_type;location;lat;lon;timestamp;P1;durP1;ratioP1;P2;durP2;ratioP2
20185;SDS011;10252;48.792;8.582;2023-06-24T00:01:37;5.63;;;4.97;;
20185;SDS011;10252;48.792;8.582;2023-06-24T00:06:41;8.25;;;5.70;;
20185;SDS011;10252;48.792;8.582;2023-06-24T00:11:42;8.18;;;5.82;;
20185;SDS011;10252;48.792;8.582;2023-06-24T00:16:44;6.88;;;5.50;;
20185;SDS011;10252;48.792;8.582;2023-06-24T00:21:46;6.13;;;5.53;;
20185;SDS011;10252;48.792;8.582;2023-06-24T00:26:48;6.28;;;4.60;;
20185;SDS011;10252;48.792;8.582;2023-06-24T00:31:49;5.97;;;5.35;;
20185;SDS011;10252;48.792;8.582;2023-06-24T00:36:51;6.03;;;5.15;;
20185;SDS011;10252;48.792;8.582;2023-06-24T00:41:54;9.10;;;5.97;;
20185;SDS011;10252;48.792;8.582;2023-06-24T00:46:56;6.78;;;6.10;;
20185;SDS011;10252;48.792;8.582;2023-06-24T00:51:57;6.60;;;5.30;;
20185;SDS011;10252;48.792;8.582;2023-06-24T00:57:01;11.70;;;5.68;;
20185;SDS011;10252;48.792;8.582;2023-06-24T01:02:03;7.10;;;5.45;;
20185;SDS011;10252;48.792;8.582;2023-06-24T01:07:08;5.75;;;5.15;;
20185;SDS011;10252;48.792;8.582;2023-06-24T01:12:10;6.50;;;5.80;;
20185;SDS011;10252;48.792;8.582;2023-06-24T01:17:13;7.88;;;5.22;;
20185;SDS011;10252;48.792;8.582;2023-06-24T01:32:50;6.15;;;5.25;;
20185;SDS011;10252;48.792;8.582;2023-06-24T01:37:57;6.60;;;5.60;;
20185;SDS011;10252;48.792;8.582;2023-06-24T01:43:00;7.70;;;5.65;;
20185;SDS011;10252;48.792;8.582;2023-06-24T01:48:06;8.93;;;5.82;;
20185;SDS011;10252;48.792;8.582;2023-06-24T01:53:08;7.20;;;5.63;;
20185;SDS011;10252;48.792;8.582;2023-06-24T01:58:10;6.05;;;5.43;;
20185;SDS011;10252;48.792;8.582;2023-06-24T02:03:12;6.22;;;5.60;;
20185;SDS011;10252;48.792;8.582;2023-06-24T02:08:15;7.10;;;5.82;;
20185;SDS011;10252;48.792;8.582;2023-06-24T02:13:18;8.10;;;6.53;;
20185;SDS011;10252;48.792;8.582;2023-06-24T02:18:21;6.22;;;5.63;;
20185;SDS011;10252;48.792;8.582;2023-06-24T02:23:24;7.00;;;6.40;;
20185;SDS011;10252;48.792;8.582;2023-06-24T02:28:26;6.88;;;5.55;;
20185;SDS011;10252;48.792;8.582;2023-06-24T02:33:28;8.38;;;5.85;;
20185;SDS011;10252;48.792;8.582;2023-06-24T02:38:29;7.40;;;5.60;;
20185;SDS011;10252;48.792;8.582;2023-06-24T02:43:32;7.22;;;5.78;;
20185;SDS011;10252;48.792;8.582;2023-06-24T02:48:36;6.97;;;5.80;;
20185;SDS011;10252;48.792;8.582;2023-06-24T02:53:38;6.55;;;5.72;;
20185;SDS011;10252;48.792;8.582;2023-06-24T02:58:41;8.75;;;6.32;;
20185;SDS011;10252;48.792;8.582;2023-06-24T03:03:53;5.97;;;5.38;;
20185;SDS011;10252;48.792;8.582;2023-06-24T03:08:54;7.68;;;6.18;;
20185;SDS011;10252;48.792;8.582;2023-06-24T03:13:57;6.70;;;6.00;;
20185;SDS011;10252;48.792;8.582;2023-06-24T03:19:12;7.30;;;6.53;;
20185;SDS011;10252;48.792;8.582;2023-06-24T03:24:14;7.88;;;5.95;;
20185;SDS011;10252;48.792;8.582;2023-06-24T03:29:18;6.43;;;5.82;;
20185;SDS011;10252;48.792;8.582;2023-06-24T03:34:32;8.45;;;6.68;;
20185;SDS011;10252;48.792;8.582;2023-06-24T03:39:33;6.50;;;5.90;;
20185;SDS011;10252;48.792;8.582;2023-06-24T03:44:35;8.70;;;6.70;;
20185;SDS011;10252;48.792;8.582;2023-06-24T03:49:37;7.68;;;5.97;;
20185;SDS011;10252;48.792;8.582;2023-06-24T03:54:39;8.07;;;6.10;;
20185;SDS011;10252;48.792;8.582;2023-06-24T03:59:41;7.13;;;6.43;;
20185;SDS011;10252;48.792;8.582;2023-06-24T04:04:43;8.50;;;6.82;;
20185;SDS011;10252;48.792;8.582;2023-06-24T04:09:44;7.50;;;6.40;;
20185;SDS011;10252;48.792;8.582;2023-06-24T04:14:47;6.70;;;5.68;;
20185;SDS011;10252;48.792;8.582;2023-06-24T04:19:48;7.43;;;5.75;;
20185;SDS011;10252;48.792;8.582;2023-06-24T04:24:50;6.32;;;5.75;;
20185;SDS011;10252;48.792;8.582;2023-06-24T04:29:51;6.53;;;5.82;;
20185;SDS011;10252;48.792;8.582;2023-06-24T04:34:53;7.03;;;6.25;;
20185;SDS011;10252;48.792;8.582;2023-06-24T04:39:55;6.50;;;5.80;;
20185;SDS011;10252;48.792;8.582;2023-06-24T04:44:57;8.32;;;6.43;;
20185;SDS011;10252;48.792;8.582;2023-06-24T04:49:59;10.63;;;6.57;;
20185;SDS011;10252;48.792;8.582;2023-06-24T04:55:00;7.03;;;6.32;;
20185;SDS011;10252;48.792;8.582;2023-06-24T05:00:02;6.93;;;6.10;;
20185;SDS011;10252;48.792;8.582;2023-06-24T05:05:03;9.48;;;6.75;;
20185;SDS011;10252;48.792;8.582;2023-06-24T05:10:05;7.28;;;6.50;;
20185;SDS011;10252;48.792;8.582;2023-06-24T05:15:06;5.75;;;5.15;;
20185;SDS011;10252;48.792;8.582;2023-06-24T05:20:08;6.90;;;6.30;;
20185;SDS011;10252;48.792;8.582;2023-06-24T05:25:10;6.43;;;5.68;;
20185;SDS011;10252;48.792;8.582;2023-06-24T05:30:12;7.57;;;5.88;;
20185;SDS011;10252;48.792;8.582;2023-06-24T05:35:14;6.35;;;5.75;;
20185;SDS011;10252;48.792;8.582;2023-06-24T05:40:16;7.40;;;6.03;;
20185;SDS011;10252;48.792;8.582;2023-06-24T05:45:19;9.85;;;6.03;;
20185;SDS011;10252;48.792;8.582;2023-06-24T05:50:21;6.40;;;5.70;;
20185;SDS011;10252;48.792;8.582;2023-06-24T05:55:22;6.50;;;5.90;;
20185;SDS011;10252;48.792;8.582;2023-06-24T06:00:24;6.80;;;6.10;;
20185;SDS011;10252;48.792;8.582;2023-06-24T06:05:25;6.25;;;5.65;;
20185;SDS011;10252;48.792;8.582;2023-06-24T06:10:27;7.30;;;6.43;;
20185;SDS011;10252;48.792;8.582;2023-06-24T06:15:28;6.65;;;6.00;;
20185;SDS011;10252;48.792;8.582;2023-06-24T06:20:30;5.55;;;5.05;;
20185;SDS011;10252;48.792;8.582;2023-06-24T06:25:31;5.43;;;4.93;;
20185;SDS011;10252;48.792;8.582;2023-06-24T06:30:33;5.35;;;4.68;;
20185;SDS011;10252;48.792;8.582;2023-06-24T06:35:34;6.20;;;4.70;;
20185;SDS011;10252;48.792;8.582;2023-06-24T06:40:36;5.15;;;4.43;;
20185;SDS011;10252;48.792;8.582;2023-06-24T06:45:37;6.00;;;4.13;;
20185;SDS011;10252;48.792;8.582;2023-06-24T06:50:39;5.53;;;5.03;;
20185;SDS011;10252;48.792;8.582;2023-06-24T06:55:40;4.20;;;3.80;;
20185;SDS011;10252;48.792;8.582;2023-06-24T07:00:43;4.55;;;4.10;;
20185;SDS011;10252;48.792;8.582;2023-06-24T07:05:45;4.53;;;4.13;;
20185;SDS011;10252;48.792;8.582;2023-06-24T07:10:47;4.28;;;3.97;;
20185;SDS011;10252;48.792;8.582;2023-06-24T07:15:48;4.22;;;3.60;;
20185;SDS011;10252;48.792;8.582;2023-06-24T07:20:50;4.18;;;3.80;;
20185;SDS011;10252;48.792;8.582;2023-06-24T07:25:51;4.15;;;3.75;;
20185;SDS011;10252;48.792;8.582;2023-06-24T07:30:53;4.43;;;3.78;;
20185;SDS011;10252;48.792;8.582;2023-06-24T07:35:54;5.03;;;3.80;;
20185;SDS011;10252;48.792;8.582;2023-06-24T07:40:56;4.10;;;3.70;;
20185;SDS011;10252;48.792;8.582;2023-06-24T07:45:57;4.03;;;3.72;;
20185;SDS011;10252;48.792;8.582;2023-06-24T07:50:58;5.50;;;3.92;;
20185;SDS011;10252;48.792;8.582;2023-06-24T07:56:00;4.18;;;3.80;;
20185;SDS011;10252;48.792;8.582;2023-06-24T08:01:02;4.63;;;3.63;;
20185;SDS011;10252;48.792;8.582;2023-06-24T08:06:04;4.10;;;3.70;;
20185;SDS011;10252;48.792;8.582;2023-06-24T08:11:05;4.10;;;3.80;;
20185;SDS011;10252;48.792;8.582;2023-06-24T08:16:08;4.18;;;3.75;;
20185;SDS011;10252;48.792;8.582;2023-06-24T08:21:09;6.57;;;4.15;;
20185;SDS011;10252;48.792;8.582;2023-06-24T08:26:11;4.03;;;3.72;;
20185;SDS011;10252;48.792;8.582;2023-06-24T08:31:13;3.25;;;2.95;;
20185;SDS011;10252;48.792;8.582;2023-06-24T08:36:14;4.30;;;3.90;;
20185;SDS011;10252;48.792;8.582;2023-06-24T08:41:16;3.60;;;3.30;;
20185;SDS011;10252;48.792;8.582;2023-06-24T08:46:17;3.58;;;3.20;;
20185;SDS011;10252;48.792;8.582;2023-06-24T08:51:20;3.88;;;3.35;;
20185;SDS011;10252;48.792;8.582;2023-06-24T08:56:23;3.22;;;2.95;;
20185;SDS011;10252;48.792;8.582;2023-06-24T09:01:24;3.42;;;3.13;;
20185;SDS011;10252;48.792;8.582;2023-06-24T09:06:26;3.35;;;2.80;;
20185;SDS011;10252;48.792;8.582;2023-06-24T09:11:28;3.58;;;3.17;;
20185;SDS011;10252;48.792;8.582;2023-06-24T09:16:29;5.05;;;3.33;;
20185;SDS011;10252;48.792;8.582;2023-06-24T09:21:31;5.10;;;2.80;;
20185;SDS011;10252;48.792;8.582;2023-06-24T09:26:33;3.15;;;2.85;;
20185;SDS011;10252;48.792;8.582;2023-06-24T09:31:34;3.42;;;2.92;;
20185;SDS011;10252;48.792;8.582;2023-06-24T09:36:36;4.07;;;3.10;;
20185;SDS011;10252;48.792;8.582;2023-06-24T09:41:48;3.40;;;3.10;;
20185;SDS011;10252;48.792;8.582;2023-06-24T09:46:51;3.40;;;3.10;;
20185;SDS011;10252;48.792;8.582;2023-06-24T09:51:56;3.45;;;3.15;;
20185;SDS011;10252;48.792;8.582;2023-06-24T09:56:59;3.17;;;2.92;;
20185;SDS011;10252;48.792;8.582;2023-06-24T10:02:01;3.58;;;3.25;;
20185;SDS011;10252;48.792;8.582;2023-06-24T10:07:03;3.53;;;3.22;;
20185;SDS011;10252;48.792;8.582;2023-06-24T10:12:05;3.90;;;3.60;;
20185;SDS011;10252;48.792;8.582;2023-06-24T10:17:06;3.55;;;3.20;;
20185;SDS011;10252;48.792;8.582;2023-06-24T10:22:08;3.42;;;3.13;;
20185;SDS011;10252;48.792;8.582;2023-06-24T10:27:14;3.60;;;3.25;;
20185;SDS011;10252;48.792;8.582;2023-06-24T10:32:17;3.90;;;3.05;;
20185;SDS011;10252;48.792;8.582;2023-06-24T10:37:20;3.88;;;3.58;;
20185;SDS011;10252;48.792;8.582;2023-06-24T10:42:32;3.60;;;3.30;;
20185;SDS011;10252;48.792;8.582;2023-06-24T10:47:34;3.55;;;3.25;;
20185;SDS011;10252;48.792;8.582;2023-06-24T10:52:37;3.28;;;2.90;;
20185;SDS011;10252;48.792;8.582;2023-06-24T10:57:41;4.32;;;3.15;;
20185;SDS011;10252;48.792;8.582;2023-06-24T11:02:44;3.22;;;2.92;;
20185;SDS011;10252;48.792;8.582;2023-06-24T11:07:46;3.50;;;2.78;;
20185;SDS011;10252;48.792;8.582;2023-06-24T11:12:47;5.68;;;3.85;;
20185;SDS011;10252;48.792;8.582;2023-06-24T11:17:50;3.88;;;3.10;;
20185;SDS011;10252;48.792;8.582;2023-06-24T11:22:52;3.65;;;3.05;;
20185;SDS011;10252;48.792;8.582;2023-06-24T11:27:55;3.75;;;3.10;;
20185;SDS011;10252;48.792;8.582;2023-06-24T11:32:56;5.25;;;3.45;;
20185;SDS011;10252;48.792;8.582;2023-06-24T11:37:58;4.10;;;3.10;;
20185;SDS011;10252;48.792;8.582;2023-06-24T11:43:00;3.42;;;2.80;;
20185;SDS011;10252;48.792;8.582;2023-06-24T11:48:02;5.57;;;2.50;;
20185;SDS011;10252;48.792;8.582;2023-06-24T11:53:05;4.05;;;2.80;;
20185;SDS011;10252;48.792;8.582;2023-06-24T11:58:07;3.20;;;3.00;;
20185;SDS011;10252;48.792;8.582;2023-06-24T12:03:10;3.33;;;3.03;;
20185;SDS011;10252;48.792;8.582;2023-06-24T12:08:12;3.83;;;3.20;;
20185;SDS011;10252;48.792;8.582;2023-06-24T12:13:16;3.03;;;2.75;;
20185;SDS011;10252;48.792;8.582;2023-06-24T12:18:17;5.13;;;3.33;;
20185;SDS011;10252;48.792;8.582;2023-06-24T12:23:19;5.30;;;3.33;;
20185;SDS011;10252;48.792;8.582;2023-06-24T12:28:20;2.97;;;2.67;;
20185;SDS011;10252;48.792;8.582;2023-06-24T12:33:22;3.47;;;3.17;;
20185;SDS011;10252;48.792;8.582;2023-06-24T12:38:23;3.60;;;2.90;;
20185;SDS011;10252;48.792;8.582;2023-06-24T12:43:25;3.33;;;2.90;;
20185;SDS011;10252;48.792;8.582;2023-06-24T12:48:26;5.57;;;3.38;;
20185;SDS011;10252;48.792;8.582;2023-06-24T12:53:29;2.83;;;2.63;;
20185;SDS011;10252;48.792;8.582;2023-06-24T12:58:30;3.28;;;2.97;;
20185;SDS011;10252;48.792;8.582;2023-06-24T13:03:32;3.53;;;3.22;;
20185;SDS011;10252;48.792;8.582;2023-06-24T13:08:33;6.60;;;3.42;;
20185;SDS011;10252;48.792;8.582;2023-06-24T13:13:35;3.65;;;2.67;;
20185;SDS011;10252;48.792;8.582;2023-06-24T13:18:37;4.70;;;3.30;;
20185;SDS011;10252;48.792;8.582;2023-06-24T13:23:38;3.53;;;3.13;;
20185;SDS011;10252;48.792;8.582;2023-06-24T13:28:42;4.03;;;3.10;;
20185;SDS011;10252;48.792;8.582;2023-06-24T13:33:44;12.52;;;6.10;;
20185;SDS011;10252;48.792;8.582;2023-06-24T13:38:49;4.00;;;3.35;;
20185;SDS011;10252;48.792;8.582;2023-06-24T13:43:50;3.45;;;3.13;;
20185;SDS011;10252;48.792;8.582;2023-06-24T13:48:52;3.25;;;2.95;;
20185;SDS011;10252;48.792;8.582;2023-06-24T13:53:54;4.18;;;3.20;;
20185;SDS011;10252;48.792;8.582;2023-06-24T13:58:56;3.47;;;3.17;;
20185;SDS011;10252;48.792;8.582;2023-06-24T14:03:57;3.42;;;3.13;;
20185;SDS011;10252;48.792;8.582;2023-06-24T14:08:59;4.15;;;3.53;;
20185;SDS011;10252;48.792;8.582;2023-06-24T14:14:00;3.15;;;2.92;;
20185;SDS011;10252;48.792;8.582;2023-06-24T14:19:02;3.70;;;3.10;;
20185;SDS011;10252;48.792;8.582;2023-06-24T14:24:04;3.60;;;2.92;;
20185;SDS011;10252;48.792;8.582;2023-06-24T14:29:07;3.25;;;2.97;;
20185;SDS011;10252;48.792;8.582;2023-06-24T14:34:08;3.38;;;3.08;;
20185;SDS011;10252;48.792;8.582;2023-06-24T14:39:13;3.78;;;3.47;;
20185;SDS011;10252;48.792;8.582;2023-06-24T14:44:15;2.88;;;2.67;;
20185;SDS011;10252;48.792;8.582;2023-06-24T14:49:17;4.13;;;3.30;;
20185;SDS011;10252;48.792;8.582;2023-06-24T14:54:18;4.20;;;3.00;;
20185;SDS011;10252;48.792;8.582;2023-06-24T14:59:19;4.40;;;3.38;;
20185;SDS011;10252;48.792;8.582;2023-06-24T15:04:21;3.38;;;3.08;;
20185;SDS011;10252;48.792;8.582;2023-06-24T15:09:23;3.70;;;3.25;;
20185;SDS011;10252;48.792;8.582;2023-06-24T15:14:24;3.45;;;3.15;;
20185;SDS011;10252;48.792;8.582;2023-06-24T15:19:25;3.95;;;3.00;;
20185;SDS011;10252;48.792;8.582;2023-06-24T15:24:27;6.75;;;4.47;;
20185;SDS011;10252;48.792;8.582;2023-06-24T15:29:28;4.18;;;3.78;;
20185;SDS011;10252;48.792;8.582;2023-06-24T15:34:30;3.75;;;3.40;;
20185;SDS011;10252;48.792;8.582;2023-06-24T15:39:32;3.95;;;3.55;;
20185;SDS011;10252;48.792;8.582;2023-06-24T15:44:34;3.65;;;3.33;;
20185;SDS011;10252;48.792;8.582;2023-06-24T15:49:35;4.10;;;3.70;;
20185;SDS011;10252;48.792;8.582;2023-06-24T15:54:37;4.30;;;3.05;;
20185;SDS011;10252;48.792;8.582;2023-06-24T15:59:38;3.70;;;3.17;;
20185;SDS011;10252;48.792;8.582;2023-06-24T16:04:39;4.35;;;3.35;;
20185;SDS011;10252;48.792;8.582;2023-06-24T16:09:41;4.40;;;3.22;;
20185;SDS011;10252;48.792;8.582;2023-06-24T16:14:43;3.75;;;3.45;;
20185;SDS011;10252;48.792;8.582;2023-06-24T16:19:44;7.60;;;3.97;;
20185;SDS011;10252;48.792;8.582;2023-06-24T16:24:45;4.25;;;3.40;;
20185;SDS011;10252;48.792;8.582;2023-06-24T16:29:47;3.53;;;3.22;;
20185;SDS011;10252;48.792;8.582;2023-06-24T16:34:48;3.17;;;2.90;;
20185;SDS011;10252;48.792;8.582;2023-06-24T16:39:49;3.95;;;3.20;;
20185;SDS011;10252;48.792;8.582;2023-06-24T16:44:51;3.90;;;3.58;;
20185;SDS011;10252;48.792;8.582;2023-06-24T16:49:54;4.03;;;3.40;;
20185;SDS011;10252;48.792;8.582;2023-06-24T16:54:55;4.72;;;3.78;;
20185;SDS011;10252;48.792;8.582;2023-06-24T16:59:58;3.47;;;3.17;;
20185;SDS011;10252;48.792;8.582;2023-06-24T17:05:00;3.35;;;3.05;;
20185;SDS011;10252;48.792;8.582;2023-06-24T17:10:01;3.53;;;3.22;;
20185;SDS011;10252;48.792;8.582;2023-06-24T17:15:03;3.40;;;3.10;;
20185;SDS011;10252;48.792;8.582;2023-06-24T17:20:06;3.25;;;2.90;;
20185;SDS011;10252;48.792;8.582;2023-06-24T17:25:07;3.05;;;2.85;;
20185;SDS011;10252;48.792;8.582;2023-06-24T17:30:09;4.00;;;3.00;;
20185;SDS011;10252;48.792;8.582;2023-06-24T17:35:10;3.90;;;3.60;;
20185;SDS011;10252;48.792;8.582;2023-06-24T17:40:12;3.85;;;3.45;;
20185;SDS011;10252;48.792;8.582;2023-06-24T17:45:13;3.35;;;3.05;;
20185;SDS011;10252;48.792;8.582;2023-06-24T17:50:15;3.22;;;2.90;;
20185;SDS011;10252;48.792;8.582;2023-06-24T17:55:17;3.55;;;3.25;;
20185;SDS011;10252;48.792;8.582;2023-06-24T18:00:19;3.90;;;3.55;;
20185;SDS011;10252;48.792;8.582;2023-06-24T18:05:20;3.45;;;3.15;;
20185;SDS011;10252;48.792;8.582;2023-06-24T18:10:22;4.03;;;3.20;;
20185;SDS011;10252;48.792;8.582;2023-06-24T18:15:23;3.15;;;2.83;;
20185;SDS011;10252;48.792;8.582;2023-06-24T18:20:26;3.88;;;3.03;;
20185;SDS011;10252;48.792;8.582;2023-06-24T18:25:28;3.17;;;2.92;;
20185;SDS011;10252;48.792;8.582;2023-06-24T18:30:30;4.55;;;3.50;;
20185;SDS011;10252;48.792;8.582;2023-06-24T18:35:31;4.20;;;3.08;;
20185;SDS011;10252;48.792;8.582;2023-06-24T18:40:33;3.20;;;2.90;;
20185;SDS011;10252;48.792;8.582;2023-06-24T18:45:36;5.25;;;2.80;;
20185;SDS011;10252;48.792;8.582;2023-06-24T18:50:38;4.85;;;3.30;;
20185;SDS011;10252;48.792;8.582;2023-06-24T18:55:40;3.40;;;2.88;;
20185;SDS011;10252;48.792;8.582;2023-06-24T19:00:41;3.63;;;2.70;;
20185;SDS011;10252;48.792;8.582;2023-06-24T19:05:44;3.35;;;2.88;;
20185;SDS011;10252;48.792;8.582;2023-06-24T19:10:45;3.40;;;3.10;;
20185;SDS011;10252;48.792;8.582;2023-06-24T19:15:47;5.05;;;3.22;;
20185;SDS011;10252;48.792;8.582;2023-06-24T19:20:48;3.28;;;2.97;;
20185;SDS011;10252;48.792;8.582;2023-06-24T19:25:50;3.20;;;2.90;;
20185;SDS011;10252;48.792;8.582;2023-06-24T19:30:51;3.88;;;3.40;;
20185;SDS011;10252;48.792;8.582;2023-06-24T19:35:53;3.53;;;2.60;;
20185;SDS011;10252;48.792;8.582;2023-06-24T19:40:55;5.70;;;2.75;;
20185;SDS011;10252;48.792;8.582;2023-06-24T19:45:57;3.65;;;3.13;;
20185;SDS011;10252;48.792;8.582;2023-06-24T19:50:58;3.78;;;3.05;;
20185;SDS011;10252;48.792;8.582;2023-06-24T19:56:00;3.20;;;2.90;;
20185;SDS011;10252;48.792;8.582;2023-06-24T20:01:01;3.42;;;3.13;;
20185;SDS011;10252;48.792;8.582;2023-06-24T20:06:03;3.90;;;3.08;;
20185;SDS011;10252;48.792;8.582;2023-06-24T20:11:06;7.68;;;3.90;;
20185;SDS011;10252;48.792;8.582;2023-06-24T20:16:08;3.95;;;3.53;;
20185;SDS011;10252;48.792;8.582;2023-06-24T20:21:10;3.58;;;3.05;;
20185;SDS011;10252;48.792;8.582;2023-06-24T20:26:14;4.90;;;4.20;;
20185;SDS011;10252;48.792;8.582;2023-06-24T20:31:17;5.72;;;3.90;;
20185;SDS011;10252;48.792;8.582;2023-06-24T20:36:19;5.82;;;4.18;;
20185;SDS011;10252;48.792;8.582;2023-06-24T20:41:21;4.05;;;3.65;;
20185;SDS011;10252;48.792;8.582;2023-06-24T20:46:23;4.32;;;3.63;;
20185;SDS011;10252;48.792;8.582;2023-06-24T20:51:29;3.65;;;3.15;;
20185;SDS011;10252;48.792;8.582;2023-06-24T20:56:32;4.20;;;3.72;;
20185;SDS011;10252;48.792;8.582;2023-06-24T21:01:34;6.50;;;3.78;;
20185;SDS011;10252;48.792;8.582;2023-06-24T21:06:36;4.65;;;3.67;;
20185;SDS011;10252;48.792;8.582;2023-06-24T21:11:38;4.28;;;3.60;;
20185;SDS011;10252;48.792;8.582;2023-06-24T21:16:39;5.30;;;4.03;;
20185;SDS011;10252;48.792;8.582;2023-06-24T21:21:42;4.13;;;3.28;;
20185;SDS011;10252;48.792;8.582;2023-06-24T21:26:45;4.32;;;3.88;;
20185;SDS011;10252;48.792;8.582;2023-06-24T21:31:47;5.88;;;4.28;;
20185;SDS011;10252;48.792;8.582;2023-06-24T21:36:48;4.75;;;4.28;;
20185;SDS011;10252;48.792;8.582;2023-06-24T21:41:50;5.90;;;4.38;;
20185;SDS011;10252;48.792;8.582;2023-06-24T21:46:51;5.38;;;4.30;;
20185;SDS011;10252;48.792;8.582;2023-06-24T21:51:54;5.38;;;4.50;;
20185;SDS011;10252;48.792;8.582;2023-06-24T21:56:56;5.97;;;3.88;;
20185;SDS011;10252;48.792;8.582;2023-06-24T22:01:58;6.22;;;4.40;;
20185;SDS011;10252;48.792;8.582;2023-06-24T22:07:00;5.70;;;4.10;;
20185;SDS011;10252;48.792;8.582;2023-06-24T22:12:01;6.50;;;4.35;;
20185;SDS011;10252;48.792;8.582;2023-06-24T22:17:02;4.45;;;3.95;;
20185;SDS011;10252;48.792;8.582;2023-06-24T22:22:04;4.28;;;3.60;;
20185;SDS011;10252;48.792;8.582;2023-06-24T22:27:05;5.25;;;4.13;;
20185;SDS011;10252;48.792;8.582;2023-06-24T22:32:06;5.85;;;4.32;;
20185;SDS011;10252;48.792;8.582;2023-06-24T22:37:08;5.47;;;4.07;;
20185;SDS011;10252;48.792;8.582;2023-06-24T22:42:09;5.85;;;4.38;;
20185;SDS011;10252;48.792;8.582;2023-06-24T22:47:11;5.30;;;4.40;;
20185;SDS011;10252;48.792;8.582;2023-06-24T22:52:12;5.25;;;4.75;;
20185;SDS011;10252;48.792;8.582;2023-06-24T22:57:14;4.97;;;4.25;;
20185;SDS011;10252;48.792;8.582;2023-06-24T23:02:15;6.13;;;4.95;;
20185;SDS011;10252;48.792;8.582;2023-06-24T23:07:16;6.25;;;4.60;;
20185;SDS011;10252;48.792;8.582;2023-06-24T23:12:18;6.63;;;4.75;;
20185;SDS011;10252;48.792;8.582;2023-06-24T23:17:20;4.88;;;4.32;;
20185;SDS011;10252;48.792;8.582;2023-06-24T23:22:22;6.35;;;4.60;;
20185;SDS011;10252;48.792;8.582;2023-06-24T23:27:24;6.47;;;4.60;;
20185;SDS011;10252;48.792;8.582;2023-06-24T23:32:32;5.63;;;4.50;;
20185;SDS011;10252;48.792;8.582;2023-06-24T23:37:37;4.43;;;4.03;;
20185;SDS011;10252;48.792;8.582;2023-06-24T23:42:39;6.18;;;5.10;;
20185;SDS011;10252;48.792;8.582;2023-06-24T23:47:42;6.22;;;4.25;;
20185;SDS011;10252;48.792;8.582;2023-06-24T23:52:44;4.55;;;3.92;;
20185;SDS011;10252;48.792;8.582;2023-06-24T23:57:45;5.97;;;4.43;;
